sensor_id;sensor_type;location;lat;lon;timestamp;P1;durP1;ratioP1;P2;durP2;ratioP2
6053;SDS011;3055;50.886;14.814;2023-10-08T00:02:06;7.00;;;3.97;;
6053;SDS011;3055;50.886;14.814;2023-10-08T00:04:34;9.60;;;4.30;;
6053;SDS011;3055;50.886;14.814;2023-10-08T00:07:03;9.07;;;4.87;;
6053;SDS011;3055;50.886;14.814;2023-10-08T00:09:32;8.07;;;4.80;;
6053;SDS011;3055;50.886;14.814;2023-10-08T00:12:02;5.03;;;3.97;;
6053;SDS011;3055;50.886;14.814;2023-10-08T00:14:29;8.43;;;4.53;;
6053;SDS011;3055;50.886;14.814;2023-10-08T00:16:58;7.33;;;4.33;;
6053;SDS011;3055;50.886;14.814;2023-10-08T00:19:26;7.10;;;4.30;;
6053;SDS011;3055;50.886;14.814;2023-10-08T00:22:00;7.73;;;4.27;;
6053;SDS011;3055;50.886;14.814;2023-10-08T00:24:31;5.07;;;3.90;;
6053;SDS011;3055;50.886;14.814;2023-10-08T00:26:58;5.53;;;4.50;;
6053;SDS011;3055;50.886;14.814;2023-10-08T00:29:29;6.33;;;4.57;;
6053;SDS011;3055;50.886;14.814;2023-10-08T00:31:56;8.40;;;4.17;;
6053;SDS011;3055;50.886;14.814;2023-10-08T00:34:24;7.80;;;4.17;;
6053;SDS011;3055;50.886;14.814;2023-10-08T00:36:53;9.03;;;4.63;;
6053;SDS011;3055;50.886;14.814;2023-10-08T00:39:20;9.20;;;4.70;;
6053;SDS011;3055;50.886;14.814;2023-10-08T00:41:52;6.03;;;4.07;;
6053;SDS011;3055;50.886;14.814;2023-10-08T00:44:23;7.03;;;4.57;;
6053;SDS011;3055;50.886;14.814;2023-10-08T00:46:55;5.40;;;4.27;;
6053;SDS011;3055;50.886;14.814;2023-10-08T00:49:26;11.00;;;4.57;;
6053;SDS011;3055;50.886;14.814;2023-10-08T00:52:14;6.77;;;4.97;;
6053;SDS011;3055;50.886;14.814;2023-10-08T00:54:55;10.87;;;4.43;;
6053;SDS011;3055;50.886;14.814;2023-10-08T00:57:34;6.23;;;4.70;;
6053;SDS011;3055;50.886;14.814;2023-10-08T01:00:07;6.60;;;4.87;;
6053;SDS011;3055;50.886;14.814;2023-10-08T01:02:42;6.87;;;4.50;;
6053;SDS011;3055;50.886;14.814;2023-10-08T01:05:11;6.53;;;4.40;;
6053;SDS011;3055;50.886;14.814;2023-10-08T01:07:44;12.27;;;4.97;;
6053;SDS011;3055;50.886;14.814;2023-10-08T01:10:16;7.27;;;4.83;;
6053;SDS011;3055;50.886;14.814;2023-10-08T01:12:45;10.40;;;5.80;;
6053;SDS011;3055;50.886;14.814;2023-10-08T01:15:28;8.47;;;5.57;;
6053;SDS011;3055;50.886;14.814;2023-10-08T01:17:56;8.50;;;5.63;;
6053;SDS011;3055;50.886;14.814;2023-10-08T01:20:25;9.60;;;5.80;;
6053;SDS011;3055;50.886;14.814;2023-10-08T01:23:05;9.53;;;5.83;;
6053;SDS011;3055;50.886;14.814;2023-10-08T01:25:38;8.53;;;5.93;;
6053;SDS011;3055;50.886;14.814;2023-10-08T01:28:07;7.90;;;6.00;;
6053;SDS011;3055;50.886;14.814;2023-10-08T01:30:41;7.90;;;6.03;;
6053;SDS011;3055;50.886;14.814;2023-10-08T01:33:11;7.60;;;6.13;;
6053;SDS011;3055;50.886;14.814;2023-10-08T01:35:40;8.57;;;5.67;;
6053;SDS011;3055;50.886;14.814;2023-10-08T01:38:09;9.27;;;6.23;;
6053;SDS011;3055;50.886;14.814;2023-10-08T01:40:39;8.67;;;6.10;;
6053;SDS011;3055;50.886;14.814;2023-10-08T01:43:07;8.00;;;6.07;;
6053;SDS011;3055;50.886;14.814;2023-10-08T01:45:35;4.43;;;3.10;;
6053;SDS011;3055;50.886;14.814;2023-10-08T01:48:06;2.50;;;2.10;;
6053;SDS011;3055;50.886;14.814;2023-10-08T01:50:35;1.20;;;1.10;;
6053;SDS011;3055;50.886;14.814;2023-10-08T01:53:03;1.00;;;1.00;;
6053;SDS011;3055;50.886;14.814;2023-10-08T01:55:35;0.70;;;0.70;;
6053;SDS011;3055;50.886;14.814;2023-10-08T01:58:15;0.70;;;0.70;;
6053;SDS011;3055;50.886;14.814;2023-10-08T02:00:43;0.60;;;0.60;;
6053;SDS011;3055;50.886;14.814;2023-10-08T02:03:12;0.70;;;0.70;;
6053;SDS011;3055;50.886;14.814;2023-10-08T02:05:41;0.77;;;0.77;;
6053;SDS011;3055;50.886;14.814;2023-10-08T02:08:09;0.60;;;0.60;;
6053;SDS011;3055;50.886;14.814;2023-10-08T02:10:39;0.60;;;0.60;;
6053;SDS011;3055;50.886;14.814;2023-10-08T02:13:08;0.70;;;0.70;;
6053;SDS011;3055;50.886;14.814;2023-10-08T02:15:35;0.60;;;0.60;;
6053;SDS011;3055;50.886;14.814;2023-10-08T02:18:04;0.67;;;0.67;;
6053;SDS011;3055;50.886;14.814;2023-10-08T02:20:32;0.70;;;0.70;;
6053;SDS011;3055;50.886;14.814;2023-10-08T02:22:59;0.70;;;0.70;;
6053;SDS011;3055;50.886;14.814;2023-10-08T02:25:26;0.73;;;0.73;;
6053;SDS011;3055;50.886;14.814;2023-10-08T02:27:54;0.70;;;0.70;;
6053;SDS011;3055;50.886;14.814;2023-10-08T02:30:22;0.80;;;0.80;;
6053;SDS011;3055;50.886;14.814;2023-10-08T02:32:49;0.70;;;0.70;;
6053;SDS011;3055;50.886;14.814;2023-10-08T02:35:17;0.80;;;0.80;;
6053;SDS011;3055;50.886;14.814;2023-10-08T02:37:44;0.80;;;0.80;;
6053;SDS011;3055;50.886;14.814;2023-10-08T02:40:12;0.80;;;0.80;;
6053;SDS011;3055;50.886;14.814;2023-10-08T02:42:51;0.60;;;0.60;;
6053;SDS011;3055;50.886;14.814;2023-10-08T02:45:24;0.97;;;0.90;;
6053;SDS011;3055;50.886;14.814;2023-10-08T02:47:51;0.83;;;0.83;;
6053;SDS011;3055;50.886;14.814;2023-10-08T02:50:19;0.70;;;0.70;;
6053;SDS011;3055;50.886;14.814;2023-10-08T02:52:47;0.70;;;0.70;;
6053;SDS011;3055;50.886;14.814;2023-10-08T02:55:15;0.63;;;0.63;;
6053;SDS011;3055;50.886;14.814;2023-10-08T02:57:53;0.70;;;0.70;;
6053;SDS011;3055;50.886;14.814;2023-10-08T03:00:21;0.90;;;0.90;;
6053;SDS011;3055;50.886;14.814;2023-10-08T03:02:56;0.93;;;0.93;;
6053;SDS011;3055;50.886;14.814;2023-10-08T03:05:23;0.97;;;0.97;;
6053;SDS011;3055;50.886;14.814;2023-10-08T03:07:55;1.10;;;1.10;;
6053;SDS011;3055;50.886;14.814;2023-10-08T03:10:23;0.90;;;0.90;;
6053;SDS011;3055;50.886;14.814;2023-10-08T03:12:57;0.80;;;0.80;;
6053;SDS011;3055;50.886;14.814;2023-10-08T03:15:29;0.80;;;0.80;;
6053;SDS011;3055;50.886;14.814;2023-10-08T03:18:05;0.80;;;0.80;;
6053;SDS011;3055;50.886;14.814;2023-10-08T03:20:35;0.90;;;0.90;;
6053;SDS011;3055;50.886;14.814;2023-10-08T03:23:08;0.90;;;0.90;;
6053;SDS011;3055;50.886;14.814;2023-10-08T03:25:49;0.97;;;0.80;;
6053;SDS011;3055;50.886;14.814;2023-10-08T03:28:21;0.80;;;0.80;;
6053;SDS011;3055;50.886;14.814;2023-10-08T03:30:50;0.90;;;0.90;;
6053;SDS011;3055;50.886;14.814;2023-10-08T03:33:29;0.80;;;0.80;;
6053;SDS011;3055;50.886;14.814;2023-10-08T03:35:59;0.80;;;0.80;;
6053;SDS011;3055;50.886;14.814;2023-10-08T03:38:34;0.77;;;0.77;;
6053;SDS011;3055;50.886;14.814;2023-10-08T03:41:15;1.10;;;1.10;;
6053;SDS011;3055;50.886;14.814;2023-10-08T03:43:45;1.07;;;1.00;;
6053;SDS011;3055;50.886;14.814;2023-10-08T03:46:23;2.03;;;1.20;;
6053;SDS011;3055;50.886;14.814;2023-10-08T03:48:52;2.57;;;1.97;;
6053;SDS011;3055;50.886;14.814;2023-10-08T03:51:22;2.67;;;1.47;;
6053;SDS011;3055;50.886;14.814;2023-10-08T03:53:52;1.73;;;1.40;;
6053;SDS011;3055;50.886;14.814;2023-10-08T03:56:40;6.20;;;1.90;;
6053;SDS011;3055;50.886;14.814;2023-10-08T03:59:10;3.13;;;1.90;;
6053;SDS011;3055;50.886;14.814;2023-10-08T04:01:40;3.97;;;1.90;;
6053;SDS011;3055;50.886;14.814;2023-10-08T04:04:09;4.50;;;2.00;;
6053;SDS011;3055;50.886;14.814;2023-10-08T04:06:39;4.53;;;1.80;;
6053;SDS011;3055;50.886;14.814;2023-10-08T04:09:13;1.87;;;1.37;;
6053;SDS011;3055;50.886;14.814;2023-10-08T04:11:49;3.07;;;1.67;;
6053;SDS011;3055;50.886;14.814;2023-10-08T04:14:19;3.23;;;1.70;;
6053;SDS011;3055;50.886;14.814;2023-10-08T04:16:46;3.13;;;1.97;;
6053;SDS011;3055;50.886;14.814;2023-10-08T04:19:18;1.90;;;1.40;;
6053;SDS011;3055;50.886;14.814;2023-10-08T04:21:46;2.30;;;2.10;;
6053;SDS011;3055;50.886;14.814;2023-10-08T04:24:19;2.00;;;1.60;;
6053;SDS011;3055;50.886;14.814;2023-10-08T04:26:53;3.77;;;2.00;;
6053;SDS011;3055;50.886;14.814;2023-10-08T04:29:22;2.73;;;1.50;;
6053;SDS011;3055;50.886;14.814;2023-10-08T04:31:51;3.13;;;1.60;;
6053;SDS011;3055;50.886;14.814;2023-10-08T04:34:28;3.03;;;1.73;;
6053;SDS011;3055;50.886;14.814;2023-10-08T04:36:58;3.43;;;1.70;;
6053;SDS011;3055;50.886;14.814;2023-10-08T04:39:28;2.53;;;1.30;;
6053;SDS011;3055;50.886;14.814;2023-10-08T04:41:58;4.40;;;1.63;;
6053;SDS011;3055;50.886;14.814;2023-10-08T04:44:31;2.43;;;1.50;;
6053;SDS011;3055;50.886;14.814;2023-10-08T04:46:59;2.23;;;1.43;;
6053;SDS011;3055;50.886;14.814;2023-10-08T04:49:33;1.60;;;1.40;;
6053;SDS011;3055;50.886;14.814;2023-10-08T04:52:03;1.93;;;1.33;;
6053;SDS011;3055;50.886;14.814;2023-10-08T04:54:39;1.43;;;1.33;;
6053;SDS011;3055;50.886;14.814;2023-10-08T04:57:11;1.60;;;1.43;;
6053;SDS011;3055;50.886;14.814;2023-10-08T04:59:41;1.40;;;1.30;;
6053;SDS011;3055;50.886;14.814;2023-10-08T05:02:08;1.83;;;1.70;;
6053;SDS011;3055;50.886;14.814;2023-10-08T05:04:40;3.30;;;1.33;;
6053;SDS011;3055;50.886;14.814;2023-10-08T05:07:21;1.43;;;1.20;;
6053;SDS011;3055;50.886;14.814;2023-10-08T05:10:05;3.23;;;1.70;;
6053;SDS011;3055;50.886;14.814;2023-10-08T05:12:57;2.10;;;1.50;;
6053;SDS011;3055;50.886;14.814;2023-10-08T05:15:40;4.47;;;1.80;;
6053;SDS011;3055;50.886;14.814;2023-10-08T05:18:15;1.23;;;1.13;;
6053;SDS011;3055;50.886;14.814;2023-10-08T05:20:50;1.67;;;1.17;;
6053;SDS011;3055;50.886;14.814;2023-10-08T05:23:39;1.50;;;1.30;;
6053;SDS011;3055;50.886;14.814;2023-10-08T05:26:19;2.50;;;1.77;;
6053;SDS011;3055;50.886;14.814;2023-10-08T05:28:56;2.13;;;1.50;;
6053;SDS011;3055;50.886;14.814;2023-10-08T05:31:48;1.63;;;1.53;;
6053;SDS011;3055;50.886;14.814;2023-10-08T05:34:35;3.67;;;1.40;;
6053;SDS011;3055;50.886;14.814;2023-10-08T05:37:09;3.03;;;1.70;;
6053;SDS011;3055;50.886;14.814;2023-10-08T05:39:58;3.80;;;1.73;;
6053;SDS011;3055;50.886;14.814;2023-10-08T05:42:38;4.20;;;2.53;;
6053;SDS011;3055;50.886;14.814;2023-10-08T05:45:11;4.03;;;1.97;;
6053;SDS011;3055;50.886;14.814;2023-10-08T05:47:39;2.33;;;1.47;;
6053;SDS011;3055;50.886;14.814;2023-10-08T05:50:27;4.27;;;2.10;;
6053;SDS011;3055;50.886;14.814;2023-10-08T05:53:05;3.63;;;1.87;;
6053;SDS011;3055;50.886;14.814;2023-10-08T05:55:55;3.07;;;1.70;;
6053;SDS011;3055;50.886;14.814;2023-10-08T05:58:41;4.30;;;1.90;;
6053;SDS011;3055;50.886;14.814;2023-10-08T06:01:25;5.17;;;2.17;;
6053;SDS011;3055;50.886;14.814;2023-10-08T06:04:05;2.87;;;1.63;;
6053;SDS011;3055;50.886;14.814;2023-10-08T06:06:46;2.93;;;1.93;;
6053;SDS011;3055;50.886;14.814;2023-10-08T06:09:24;5.00;;;2.07;;
6053;SDS011;3055;50.886;14.814;2023-10-08T06:12:00;2.20;;;1.80;;
6053;SDS011;3055;50.886;14.814;2023-10-08T06:14:36;2.67;;;1.87;;
6053;SDS011;3055;50.886;14.814;2023-10-08T06:17:18;4.87;;;2.30;;
6053;SDS011;3055;50.886;14.814;2023-10-08T06:20:20;2.07;;;1.80;;
6053;SDS011;3055;50.886;14.814;2023-10-08T06:22:50;4.00;;;2.07;;
6053;SDS011;3055;50.886;14.814;2023-10-08T06:25:26;3.93;;;2.10;;
6053;SDS011;3055;50.886;14.814;2023-10-08T06:27:53;3.17;;;2.00;;
6053;SDS011;3055;50.886;14.814;2023-10-08T06:30:22;6.20;;;2.70;;
6053;SDS011;3055;50.886;14.814;2023-10-08T06:32:54;4.93;;;2.20;;
6053;SDS011;3055;50.886;14.814;2023-10-08T06:35:22;6.60;;;2.27;;
6053;SDS011;3055;50.886;14.814;2023-10-08T06:37:52;5.27;;;2.13;;
6053;SDS011;3055;50.886;14.814;2023-10-08T06:40:26;5.57;;;2.23;;
6053;SDS011;3055;50.886;14.814;2023-10-08T06:43:08;5.03;;;2.47;;
6053;SDS011;3055;50.886;14.814;2023-10-08T06:45:42;2.60;;;1.87;;
6053;SDS011;3055;50.886;14.814;2023-10-08T06:48:10;3.60;;;2.07;;
6053;SDS011;3055;50.886;14.814;2023-10-08T06:50:44;3.27;;;2.10;;
6053;SDS011;3055;50.886;14.814;2023-10-08T06:53:11;5.50;;;2.30;;
6053;SDS011;3055;50.886;14.814;2023-10-08T06:55:40;4.17;;;2.03;;
6053;SDS011;3055;50.886;14.814;2023-10-08T06:58:08;5.87;;;2.30;;
6053;SDS011;3055;50.886;14.814;2023-10-08T07:00:37;5.40;;;2.20;;
6053;SDS011;3055;50.886;14.814;2023-10-08T07:03:05;3.70;;;2.30;;
6053;SDS011;3055;50.886;14.814;2023-10-08T07:05:35;3.23;;;2.07;;
6053;SDS011;3055;50.886;14.814;2023-10-08T07:08:06;3.50;;;2.23;;
6053;SDS011;3055;50.886;14.814;2023-10-08T07:10:34;3.83;;;2.47;;
6053;SDS011;3055;50.886;14.814;2023-10-08T07:13:04;4.53;;;2.73;;
6053;SDS011;3055;50.886;14.814;2023-10-08T07:15:33;4.63;;;2.80;;
6053;SDS011;3055;50.886;14.814;2023-10-08T07:18:03;6.40;;;2.80;;
6053;SDS011;3055;50.886;14.814;2023-10-08T07:20:35;3.37;;;2.50;;
6053;SDS011;3055;50.886;14.814;2023-10-08T07:23:05;4.63;;;2.60;;
6053;SDS011;3055;50.886;14.814;2023-10-08T07:25:44;4.93;;;2.70;;
6053;SDS011;3055;50.886;14.814;2023-10-08T07:28:20;4.80;;;3.00;;
6053;SDS011;3055;50.886;14.814;2023-10-08T07:30:49;4.43;;;2.83;;
6053;SDS011;3055;50.886;14.814;2023-10-08T07:33:17;3.10;;;2.57;;
6053;SDS011;3055;50.886;14.814;2023-10-08T07:35:45;4.93;;;2.73;;
6053;SDS011;3055;50.886;14.814;2023-10-08T07:38:20;6.17;;;3.03;;
6053;SDS011;3055;50.886;14.814;2023-10-08T07:40:48;5.27;;;3.00;;
6053;SDS011;3055;50.886;14.814;2023-10-08T07:43:15;3.07;;;2.53;;
6053;SDS011;3055;50.886;14.814;2023-10-08T07:45:47;4.50;;;2.70;;
6053;SDS011;3055;50.886;14.814;2023-10-08T07:48:14;6.03;;;3.60;;
6053;SDS011;3055;50.886;14.814;2023-10-08T07:50:41;7.00;;;3.67;;
6053;SDS011;3055;50.886;14.814;2023-10-08T07:53:10;4.77;;;3.53;;
6053;SDS011;3055;50.886;14.814;2023-10-08T07:55:46;5.77;;;3.60;;
6053;SDS011;3055;50.886;14.814;2023-10-08T07:58:14;7.40;;;4.43;;
6053;SDS011;3055;50.886;14.814;2023-10-08T08:00:42;7.47;;;3.73;;
6053;SDS011;3055;50.886;14.814;2023-10-08T08:03:19;5.50;;;3.93;;
6053;SDS011;3055;50.886;14.814;2023-10-08T08:05:46;5.07;;;4.53;;
6053;SDS011;3055;50.886;14.814;2023-10-08T08:08:18;8.80;;;4.37;;
6053;SDS011;3055;50.886;14.814;2023-10-08T08:10:47;7.80;;;4.63;;
6053;SDS011;3055;50.886;14.814;2023-10-08T08:13:15;4.83;;;4.30;;
6053;SDS011;3055;50.886;14.814;2023-10-08T08:15:46;4.40;;;3.97;;
6053;SDS011;3055;50.886;14.814;2023-10-08T08:18:16;5.07;;;4.00;;
6053;SDS011;3055;50.886;14.814;2023-10-08T08:20:49;8.10;;;4.30;;
6053;SDS011;3055;50.886;14.814;2023-10-08T08:23:17;7.07;;;4.27;;
6053;SDS011;3055;50.886;14.814;2023-10-08T08:25:47;8.30;;;4.80;;
6053;SDS011;3055;50.886;14.814;2023-10-08T08:28:31;6.87;;;4.27;;
6053;SDS011;3055;50.886;14.814;2023-10-08T08:31:02;6.57;;;4.63;;
6053;SDS011;3055;50.886;14.814;2023-10-08T08:33:33;6.50;;;5.17;;
6053;SDS011;3055;50.886;14.814;2023-10-08T08:36:19;5.07;;;4.33;;
6053;SDS011;3055;50.886;14.814;2023-10-08T08:38:47;9.40;;;5.23;;
6053;SDS011;3055;50.886;14.814;2023-10-08T08:41:14;7.40;;;5.30;;
6053;SDS011;3055;50.886;14.814;2023-10-08T08:43:44;7.47;;;4.47;;
6053;SDS011;3055;50.886;14.814;2023-10-08T08:46:22;7.17;;;5.03;;
6053;SDS011;3055;50.886;14.814;2023-10-08T08:48:54;8.27;;;6.00;;
6053;SDS011;3055;50.886;14.814;2023-10-08T08:51:25;8.10;;;5.13;;
6053;SDS011;3055;50.886;14.814;2023-10-08T08:53:52;7.33;;;4.80;;
6053;SDS011;3055;50.886;14.814;2023-10-08T08:56:19;7.07;;;4.57;;
6053;SDS011;3055;50.886;14.814;2023-10-08T08:58:48;5.60;;;4.27;;
6053;SDS011;3055;50.886;14.814;2023-10-08T09:01:16;7.23;;;4.67;;
6053;SDS011;3055;50.886;14.814;2023-10-08T09:03:45;7.23;;;5.13;;
6053;SDS011;3055;50.886;14.814;2023-10-08T09:06:13;6.23;;;4.30;;
6053;SDS011;3055;50.886;14.814;2023-10-08T09:08:42;4.83;;;4.17;;
6053;SDS011;3055;50.886;14.814;2023-10-08T09:11:13;6.00;;;4.10;;
6053;SDS011;3055;50.886;14.814;2023-10-08T09:13:41;7.97;;;4.00;;
6053;SDS011;3055;50.886;14.814;2023-10-08T09:16:12;5.93;;;4.23;;
6053;SDS011;3055;50.886;14.814;2023-10-08T09:18:41;9.47;;;4.83;;
6053;SDS011;3055;50.886;14.814;2023-10-08T09:21:10;8.17;;;4.60;;
6053;SDS011;3055;50.886;14.814;2023-10-08T09:23:42;6.60;;;4.33;;
6053;SDS011;3055;50.886;14.814;2023-10-08T09:26:12;11.07;;;4.43;;
6053;SDS011;3055;50.886;14.814;2023-10-08T09:28:40;8.00;;;4.07;;
6053;SDS011;3055;50.886;14.814;2023-10-08T09:31:12;6.20;;;3.73;;
6053;SDS011;3055;50.886;14.814;2023-10-08T09:33:39;4.40;;;3.70;;
6053;SDS011;3055;50.886;14.814;2023-10-08T09:36:07;4.50;;;4.07;;
6053;SDS011;3055;50.886;14.814;2023-10-08T09:38:46;8.00;;;4.23;;
6053;SDS011;3055;50.886;14.814;2023-10-08T09:41:14;5.67;;;3.30;;
6053;SDS011;3055;50.886;14.814;2023-10-08T09:43:42;6.60;;;4.13;;
6053;SDS011;3055;50.886;14.814;2023-10-08T09:46:13;5.77;;;3.80;;
6053;SDS011;3055;50.886;14.814;2023-10-08T09:48:44;6.07;;;3.20;;
6053;SDS011;3055;50.886;14.814;2023-10-08T09:51:16;3.30;;;2.80;;
6053;SDS011;3055;50.886;14.814;2023-10-08T09:53:51;6.00;;;3.40;;
6053;SDS011;3055;50.886;14.814;2023-10-08T09:56:20;4.63;;;2.97;;
6053;SDS011;3055;50.886;14.814;2023-10-08T09:58:49;4.20;;;2.57;;
6053;SDS011;3055;50.886;14.814;2023-10-08T10:01:17;4.00;;;3.20;;
6053;SDS011;3055;50.886;14.814;2023-10-08T10:03:47;4.00;;;2.80;;
6053;SDS011;3055;50.886;14.814;2023-10-08T10:06:15;3.93;;;2.70;;
6053;SDS011;3055;50.886;14.814;2023-10-08T10:08:45;5.90;;;3.33;;
6053;SDS011;3055;50.886;14.814;2023-10-08T10:11:14;4.10;;;2.97;;
6053;SDS011;3055;50.886;14.814;2023-10-08T10:13:42;5.00;;;2.87;;
6053;SDS011;3055;50.886;14.814;2023-10-08T10:16:13;7.13;;;3.17;;
6053;SDS011;3055;50.886;14.814;2023-10-08T10:18:44;6.03;;;3.37;;
6053;SDS011;3055;50.886;14.814;2023-10-08T10:21:26;5.00;;;2.80;;
6053;SDS011;3055;50.886;14.814;2023-10-08T10:23:57;3.90;;;2.70;;
6053;SDS011;3055;50.886;14.814;2023-10-08T10:26:25;6.87;;;3.03;;
6053;SDS011;3055;50.886;14.814;2023-10-08T10:31:47;4.27;;;2.50;;
6053;SDS011;3055;50.886;14.814;2023-10-08T10:34:18;2.77;;;2.20;;
6053;SDS011;3055;50.886;14.814;2023-10-08T10:36:48;7.27;;;2.17;;
6053;SDS011;3055;50.886;14.814;2023-10-08T10:39:22;4.50;;;2.37;;
6053;SDS011;3055;50.886;14.814;2023-10-08T10:41:56;4.57;;;2.47;;
6053;SDS011;3055;50.886;14.814;2023-10-08T10:44:26;2.90;;;1.63;;
6053;SDS011;3055;50.886;14.814;2023-10-08T10:46:54;2.87;;;2.00;;
6053;SDS011;3055;50.886;14.814;2023-10-08T10:49:36;2.40;;;2.03;;
6053;SDS011;3055;50.886;14.814;2023-10-08T10:52:13;4.57;;;2.67;;
6053;SDS011;3055;50.886;14.814;2023-10-08T10:54:46;3.77;;;2.20;;
6053;SDS011;3055;50.886;14.814;2023-10-08T10:57:24;2.40;;;2.00;;
6053;SDS011;3055;50.886;14.814;2023-10-08T11:00:00;4.87;;;2.20;;
6053;SDS011;3055;50.886;14.814;2023-10-08T11:02:53;3.67;;;1.87;;
6053;SDS011;3055;50.886;14.814;2023-10-08T11:05:25;1.90;;;1.80;;
6053;SDS011;3055;50.886;14.814;2023-10-08T11:07:54;2.37;;;1.80;;
6053;SDS011;3055;50.886;14.814;2023-10-08T11:10:27;3.07;;;2.33;;
6053;SDS011;3055;50.886;14.814;2023-10-08T11:12:55;3.07;;;1.67;;
6053;SDS011;3055;50.886;14.814;2023-10-08T11:15:26;2.17;;;1.80;;
6053;SDS011;3055;50.886;14.814;2023-10-08T11:18:06;2.97;;;1.80;;
6053;SDS011;3055;50.886;14.814;2023-10-08T11:20:34;2.30;;;1.83;;
6053;SDS011;3055;50.886;14.814;2023-10-08T11:23:05;4.10;;;2.40;;
6053;SDS011;3055;50.886;14.814;2023-10-08T11:25:53;4.17;;;2.00;;
6053;SDS011;3055;50.886;14.814;2023-10-08T11:28:25;2.30;;;1.80;;
6053;SDS011;3055;50.886;14.814;2023-10-08T11:30:53;2.17;;;1.60;;
6053;SDS011;3055;50.886;14.814;2023-10-08T11:33:24;1.60;;;1.40;;
6053;SDS011;3055;50.886;14.814;2023-10-08T11:35:56;2.30;;;1.67;;
6053;SDS011;3055;50.886;14.814;2023-10-08T11:38:25;1.80;;;1.47;;
6053;SDS011;3055;50.886;14.814;2023-10-08T11:40:54;1.80;;;1.70;;
6053;SDS011;3055;50.886;14.814;2023-10-08T11:43:23;4.70;;;1.90;;
6053;SDS011;3055;50.886;14.814;2023-10-08T11:45:50;2.97;;;1.60;;
6053;SDS011;3055;50.886;14.814;2023-10-08T11:48:18;2.60;;;1.70;;
6053;SDS011;3055;50.886;14.814;2023-10-08T11:50:53;2.27;;;1.63;;
6053;SDS011;3055;50.886;14.814;2023-10-08T11:53:22;1.60;;;1.47;;
6053;SDS011;3055;50.886;14.814;2023-10-08T11:55:54;2.57;;;1.53;;
6053;SDS011;3055;50.886;14.814;2023-10-08T11:58:22;2.53;;;1.40;;
6053;SDS011;3055;50.886;14.814;2023-10-08T12:01:02;2.20;;;1.60;;
6053;SDS011;3055;50.886;14.814;2023-10-08T12:03:30;3.40;;;1.60;;
6053;SDS011;3055;50.886;14.814;2023-10-08T12:06:00;1.87;;;1.40;;
6053;SDS011;3055;50.886;14.814;2023-10-08T12:08:29;2.87;;;1.43;;
6053;SDS011;3055;50.886;14.814;2023-10-08T12:11:05;2.27;;;1.57;;
6053;SDS011;3055;50.886;14.814;2023-10-08T12:13:36;2.37;;;1.23;;
6053;SDS011;3055;50.886;14.814;2023-10-08T12:16:04;1.37;;;1.20;;
6053;SDS011;3055;50.886;14.814;2023-10-08T12:18:37;2.30;;;1.73;;
6053;SDS011;3055;50.886;14.814;2023-10-08T12:21:06;2.00;;;1.50;;
6053;SDS011;3055;50.886;14.814;2023-10-08T12:23:36;3.53;;;1.70;;
6053;SDS011;3055;50.886;14.814;2023-10-08T12:26:03;2.30;;;1.50;;
6053;SDS011;3055;50.886;14.814;2023-10-08T12:28:34;2.53;;;1.40;;
6053;SDS011;3055;50.886;14.814;2023-10-08T12:31:02;2.83;;;1.60;;
6053;SDS011;3055;50.886;14.814;2023-10-08T12:33:29;2.27;;;1.53;;
6053;SDS011;3055;50.886;14.814;2023-10-08T12:35:57;3.97;;;1.60;;
6053;SDS011;3055;50.886;14.814;2023-10-08T12:38:35;2.10;;;1.40;;
6053;SDS011;3055;50.886;14.814;2023-10-08T12:41:03;2.07;;;1.67;;
6053;SDS011;3055;50.886;14.814;2023-10-08T12:43:38;3.00;;;1.70;;
6053;SDS011;3055;50.886;14.814;2023-10-08T12:46:10;2.90;;;1.50;;
6053;SDS011;3055;50.886;14.814;2023-10-08T12:48:43;2.27;;;1.67;;
6053;SDS011;3055;50.886;14.814;2023-10-08T12:51:13;2.03;;;1.80;;
6053;SDS011;3055;50.886;14.814;2023-10-08T12:53:41;1.87;;;1.67;;
6053;SDS011;3055;50.886;14.814;2023-10-08T12:56:15;2.73;;;1.63;;
6053;SDS011;3055;50.886;14.814;2023-10-08T12:58:48;2.20;;;1.40;;
6053;SDS011;3055;50.886;14.814;2023-10-08T13:01:15;2.20;;;1.53;;
6053;SDS011;3055;50.886;14.814;2023-10-08T13:03:43;3.83;;;1.73;;
6053;SDS011;3055;50.886;14.814;2023-10-08T13:06:14;3.27;;;1.70;;
6053;SDS011;3055;50.886;14.814;2023-10-08T13:08:47;3.90;;;1.70;;
6053;SDS011;3055;50.886;14.814;2023-10-08T13:11:17;4.83;;;1.87;;
6053;SDS011;3055;50.886;14.814;2023-10-08T13:13:49;2.73;;;1.70;;
6053;SDS011;3055;50.886;14.814;2023-10-08T13:16:16;4.23;;;1.80;;
6053;SDS011;3055;50.886;14.814;2023-10-08T13:18:43;1.83;;;1.40;;
6053;SDS011;3055;50.886;14.814;2023-10-08T13:21:11;2.97;;;1.60;;
6053;SDS011;3055;50.886;14.814;2023-10-08T13:23:38;2.83;;;1.67;;
6053;SDS011;3055;50.886;14.814;2023-10-08T13:26:06;1.97;;;1.60;;
6053;SDS011;3055;50.886;14.814;2023-10-08T13:28:33;4.10;;;1.97;;
6053;SDS011;3055;50.886;14.814;2023-10-08T13:31:02;2.50;;;1.77;;
6053;SDS011;3055;50.886;14.814;2023-10-08T13:33:35;2.93;;;1.77;;
6053;SDS011;3055;50.886;14.814;2023-10-08T13:36:04;3.30;;;1.60;;
6053;SDS011;3055;50.886;14.814;2023-10-08T13:38:34;2.70;;;1.70;;
6053;SDS011;3055;50.886;14.814;2023-10-08T13:41:01;1.80;;;1.40;;
6053;SDS011;3055;50.886;14.814;2023-10-08T13:43:31;2.20;;;1.97;;
6053;SDS011;3055;50.886;14.814;2023-10-08T13:46:05;5.83;;;2.13;;
6053;SDS011;3055;50.886;14.814;2023-10-08T13:48:38;1.70;;;1.60;;
6053;SDS011;3055;50.886;14.814;2023-10-08T13:51:05;3.47;;;1.80;;
6053;SDS011;3055;50.886;14.814;2023-10-08T13:53:38;2.80;;;1.83;;
6053;SDS011;3055;50.886;14.814;2023-10-08T13:56:10;2.03;;;1.50;;
6053;SDS011;3055;50.886;14.814;2023-10-08T13:58:38;3.77;;;1.70;;
6053;SDS011;3055;50.886;14.814;2023-10-08T14:01:12;2.27;;;1.80;;
6053;SDS011;3055;50.886;14.814;2023-10-08T14:03:46;3.07;;;1.80;;
6053;SDS011;3055;50.886;14.814;2023-10-08T14:06:18;1.90;;;1.60;;
6053;SDS011;3055;50.886;14.814;2023-10-08T14:08:47;2.47;;;1.97;;
6053;SDS011;3055;50.886;14.814;2023-10-08T14:11:17;2.20;;;1.70;;
6053;SDS011;3055;50.886;14.814;2023-10-08T14:13:48;3.27;;;2.27;;
6053;SDS011;3055;50.886;14.814;2023-10-08T14:16:17;3.73;;;2.27;;
6053;SDS011;3055;50.886;14.814;2023-10-08T14:18:48;1.70;;;1.60;;
6053;SDS011;3055;50.886;14.814;2023-10-08T14:21:19;2.60;;;2.20;;
6053;SDS011;3055;50.886;14.814;2023-10-08T14:23:49;4.90;;;2.73;;
6053;SDS011;3055;50.886;14.814;2023-10-08T14:26:17;2.90;;;2.10;;
6053;SDS011;3055;50.886;14.814;2023-10-08T14:28:47;2.50;;;2.10;;
6053;SDS011;3055;50.886;14.814;2023-10-08T14:31:20;2.23;;;1.80;;
6053;SDS011;3055;50.886;14.814;2023-10-08T14:33:50;2.57;;;1.70;;
6053;SDS011;3055;50.886;14.814;2023-10-08T14:36:30;3.07;;;2.10;;
6053;SDS011;3055;50.886;14.814;2023-10-08T14:39:16;1.80;;;1.67;;
6053;SDS011;3055;50.886;14.814;2023-10-08T14:42:00;2.17;;;1.87;;
6053;SDS011;3055;50.886;14.814;2023-10-08T14:44:45;2.70;;;1.93;;
6053;SDS011;3055;50.886;14.814;2023-10-08T14:47:15;3.73;;;2.10;;
6053;SDS011;3055;50.886;14.814;2023-10-08T14:49:42;2.70;;;1.73;;
6053;SDS011;3055;50.886;14.814;2023-10-08T14:52:10;2.40;;;1.80;;
6053;SDS011;3055;50.886;14.814;2023-10-08T14:54:38;2.13;;;1.90;;
6053;SDS011;3055;50.886;14.814;2023-10-08T14:57:06;3.13;;;2.00;;
6053;SDS011;3055;50.886;14.814;2023-10-08T14:59:35;3.27;;;2.00;;
6053;SDS011;3055;50.886;14.814;2023-10-08T15:02:02;2.47;;;2.03;;
6053;SDS011;3055;50.886;14.814;2023-10-08T15:04:30;2.33;;;1.73;;
6053;SDS011;3055;50.886;14.814;2023-10-08T15:07:00;2.70;;;1.80;;
6053;SDS011;3055;50.886;14.814;2023-10-08T15:09:28;3.43;;;2.07;;
6053;SDS011;3055;50.886;14.814;2023-10-08T15:11:55;2.80;;;1.50;;
6053;SDS011;3055;50.886;14.814;2023-10-08T15:14:23;2.20;;;2.00;;
6053;SDS011;3055;50.886;14.814;2023-10-08T15:16:50;2.17;;;1.80;;
6053;SDS011;3055;50.886;14.814;2023-10-08T15:19:18;3.90;;;1.77;;
6053;SDS011;3055;50.886;14.814;2023-10-08T15:21:48;2.23;;;1.93;;
6053;SDS011;3055;50.886;14.814;2023-10-08T15:24:16;4.73;;;2.10;;
6053;SDS011;3055;50.886;14.814;2023-10-08T15:26:46;2.97;;;1.90;;
6053;SDS011;3055;50.886;14.814;2023-10-08T15:29:13;2.60;;;1.90;;
6053;SDS011;3055;50.886;14.814;2023-10-08T15:31:40;3.43;;;2.23;;